Time;durP1;ratioP1;P1;durP2;ratioP2;P2;SDS_P1;SDS_P2;PMS_P1;PMS_P2;Temp;Humidity;BMP_temperature;BMP_pressure;BME280_temperature;BME280_humidity;BME280_pressure;Samples;Min_cycle;Max_cycle;Signal;HPM_P1;HPM_P2
2021/05/26 11:50:23;;;;;;;2.42;2.22;;;27.80;45.70;;;;;;6218716;23;20344;-89
2021/05/26 11:53:13;;;;;;;2.28;2.08;;;27.90;45.70;;;;;;6198314;23;20013;-88
2021/05/26 11:55:44;;;;;;;2.80;2.08;;;28.10;45.70;;;;;;6214518;23;20035;-89
2021/05/26 11:59:04;;;;;;;9.32;2.25;;;28.30;45.50;;;;;;6216219;23;19989;-90
2021/05/26 12:02:00;;;;;;;2.38;2.22;;;28.50;43.10;;;;;;6201769;23;20012;-90
2021/05/26 12:04:38;;;;;;;2.47;2.25;;;28.50;44.30;;;;;;6216704;23;19993;-89
2021/05/26 12:07:10;;;;;;;2.30;2.10;;;28.50;44.60;;;;;;6213385;23;20027;-89
2021/05/26 12:10:05;;;;;;;2.75;2.55;;;28.70;44.30;;;;;;6191570;23;20000;-89
2021/05/26 12:12:39;;;;;;;1.98;1.77;;;28.90;43.00;;;;;;6191803;23;20032;-88
2021/05/26 12:15:17;;;;;;;2.28;2.08;;;28.80;43.20;;;;;;6190879;23;20011;-87
2021/05/26 12:17:59;;;;;;;;;;;;;;;;;;;;;
2021/05/26 12:37:34;;;;;;;;;;;;;;;;;;;;;
2021/05/26 13:19:35;;;;;;;3.05;2.28;;;27.30;42.20;;;;;;6039846;23;20051;-92
2021/05/26 13:33:01;;;;;;;;;;;;;;;;;;;;;
2021/05/26 13:54:47;;;;;;;2.80;2.60;;;24.30;51.60;;;;;;5988669;23;20024;-92
2021/05/26 13:57:42;;;;;;;2.80;2.55;;;24.00;52.70;;;;;;5985636;24;20016;-92
2021/05/26 14:01:20;;;;;;;3.47;2.95;;;23.90;53.40;;;;;;5985173;24;20060;-92
2021/05/26 14:04:25;;;;;;;;;;;;;;;;;;;;;
2021/05/26 14:10:28;;;;;;;3.00;2.67;;;23.60;56.50;;;;;;5959890;24;20517;-90
2021/05/26 14:13:03;;;;;;;2.90;2.60;;;23.50;55.40;;;;;;5964669;23;20015;-89
2021/05/26 14:23:20;;;;;;;2.92;2.53;;;23.40;56.60;;;;;;6101866;23;20008;-91
2021/05/26 14:30:02;;;;;;;;;;;;;;;;;;;;;
2021/05/26 14:33:37;;;;;;;3.63;2.78;;;23.30;56.60;;;;;;6091663;23;20003;-91
2021/05/26 14:36:46;;;;;;;;;;;;;;;;;;;;;
2021/05/26 14:42:54;;;;;;;4.28;3.08;;;23.10;58.60;;;;;;6076247;23;20014;-92
2021/05/26 14:48:55;;;;;;;5.82;2.60;;;22.90;59.20;;;;;;6017980;23;20022;-91
2021/05/26 14:51:32;;;;;;;3.25;2.95;;;22.90;59.50;;;;;;6044196;23;20014;-91
2021/05/26 14:54:28;;;;;;;;;;;;;;;;;;;;;
2021/05/26 14:57:36;;;;;;;;;;;;;;;;;;;;;
2021/05/26 15:01:19;;;;;;;2.67;2.40;;;22.80;60.60;;;;;;6181772;23;20002;-88
2021/05/26 15:03:32;;;;;;;2.80;2.60;;;22.80;60.90;;;;;;6197199;23;20009;-89
2021/05/26 15:06:03;;;;;;;5.75;2.22;;;22.80;60.50;;;;;;6177128;23;20005;-91
2021/05/26 15:09:26;;;;;;;;;;;;;;;;;;;;;
2021/05/26 15:16:15;;;;;;;2.90;2.60;;;23.20;59.90;;;;;;6099768;23;20025;-92
2021/05/26 15:32:53;;;;;;;2.40;2.20;;;23.20;59.20;;;;;;6103748;22;4466424;-90
2021/05/26 15:35:41;;;;;;;;;;;;;;;;;;;;;
2021/05/26 15:38:16;;;;;;;2.75;2.22;;;22.80;58.10;;;;;;6265162;23;20015;-89
2021/05/26 15:40:43;;;;;;;2.40;2.20;;;22.80;58.20;;;;;;6258192;23;20082;-91
2021/05/26 15:43:31;;;;;;;3.65;2.50;;;22.90;58.40;;;;;;6256762;23;19996;-91
2021/05/26 15:46:29;;;;;;;5.53;2.67;;;22.80;58.20;;;;;;6257333;23;20000;-91
2021/05/26 15:49:36;;;;;;;2.50;2.25;;;22.60;59.00;;;;;;6234167;23;20033;-93
2021/05/26 15:52:10;;;;;;;3.22;2.92;;;22.50;58.60;;;;;;6255493;23;20011;-91
2021/05/26 15:55:19;;;;;;;2.35;2.15;;;22.30;58.70;;;;;;6256211;23;20007;-91
2021/05/26 15:58:02;;;;;;;2.30;2.10;;;22.10;58.90;;;;;;6255969;23;20007;-93
2021/05/26 16:00:44;;;;;;;2.70;2.47;;;22.00;59.20;;;;;;6254973;23;20131;-92
2021/05/26 16:03:10;;;;;;;2.00;1.85;;;21.90;59.40;;;;;;6255050;23;20000;-90
2021/05/26 16:05:37;;;;;;;2.97;2.33;;;21.80;59.60;;;;;;6256687;22;19999;-90
2021/05/26 16:08:05;;;;;;;2.40;2.20;;;21.70;59.80;;;;;;6255995;23;20028;-91
2021/05/26 16:10:32;;;;;;;3.05;2.63;;;21.60;59.80;;;;;;6254112;23;20061;-90
2021/05/26 16:13:00;;;;;;;2.65;2.45;;;21.60;60.00;;;;;;6256186;22;20004;-90
2021/05/26 16:15:35;;;;;;;3.97;2.95;;;21.60;60.00;;;;;;6229571;23;20069;-90
2021/05/26 16:18:42;;;;;;;2.55;2.35;;;21.50;60.20;;;;;;6231308;23;20323;-90
2021/05/26 16:28:09;;;;;;;;;;;;;;;;;;;;;
2021/05/26 16:31:02;;;;;;;4.03;2.20;;;21.30;60.70;;;;;;6047589;23;20090;-88
2021/05/26 16:34:11;;;;;;;2.78;2.30;;;21.30;61.20;;;;;;5992784;23;20356;-90
2021/05/26 17:22:32;;;;;;;2.40;2.20;;;20.80;64.10;;;;;;5795053;24;20032;-92
2021/05/26 17:49:12;;;;;;;2.70;2.38;;;19.80;67.60;;;;;;6270525;22;20035;-90
2021/05/26 17:51:41;;;;;;;3.30;2.35;;;19.70;66.00;;;;;;6251207;22;20110;-90
2021/05/26 17:54:08;;;;;;;4.85;2.70;;;19.60;66.30;;;;;;6278977;22;20032;-88
2021/05/26 17:56:36;;;;;;;3.30;2.83;;;19.50;67.10;;;;;;6250748;22;20000;-89
2021/05/26 17:59:09;;;;;;;4.45;2.85;;;19.50;67.90;;;;;;6252040;22;19996;-89
2021/05/26 18:01:36;;;;;;;5.18;2.70;;;19.40;68.00;;;;;;6251576;22;20101;-89
2021/05/26 18:04:09;;;;;;;3.67;2.80;;;19.40;68.00;;;;;;6251863;22;20006;-90
2021/05/26 18:06:38;;;;;;;4.15;2.85;;;19.40;69.20;;;;;;6251813;22;20042;-90
2021/05/26 18:09:05;;;;;;;3.50;2.63;;;19.30;69.10;;;;;;6279080;22;20007;-90
2021/05/26 18:11:31;;;;;;;2.60;2.30;;;19.30;69.30;;;;;;6251571;22;20007;-89
2021/05/26 18:13:59;;;;;;;2.05;1.95;;;19.20;69.30;;;;;;6251506;22;20327;-89
2021/05/26 18:16:33;;;;;;;2.58;2.17;;;19.20;69.60;;;;;;6251444;22;20024;-89
2021/05/26 18:19:02;;;;;;;2.47;2.10;;;19.20;70.00;;;;;;6278867;22;20327;-90
2021/05/26 18:21:30;;;;;;;3.90;2.50;;;19.20;70.20;;;;;;6251610;22;20439;-90
2021/05/26 18:23:56;;;;;;;2.47;2.28;;;19.20;70.60;;;;;;6251681;22;20070;-89
2021/05/26 18:26:21;;;;;;;2.20;2.00;;;19.10;70.70;;;;;;6251357;22;20019;-89
2021/05/26 18:28:50;;;;;;;2.20;2.00;;;19.10;70.90;;;;;;6251560;22;20319;-88
2021/05/26 18:31:15;;;;;;;1.92;1.80;;;19.10;70.90;;;;;;6278790;22;19992;-89
2021/05/26 18:33:41;;;;;;;2.15;2.00;;;19.10;70.90;;;;;;6283051;22;19996;-89
2021/05/26 18:36:10;;;;;;;2.25;1.95;;;19.10;71.00;;;;;;6261412;22;19996;-88
2021/05/26 18:38:36;;;;;;;1.90;1.80;;;19.10;71.20;;;;;;6270938;22;20054;-89
2021/05/26 18:41:05;;;;;;;2.30;2.10;;;19.10;71.20;;;;;;6275027;22;20031;-89
2021/05/26 18:43:31;;;;;;;2.05;1.88;;;19.10;71.20;;;;;;6275625;22;20003;-89
2021/05/26 18:46:04;;;;;;;2.17;1.95;;;19.20;71.20;;;;;;6273949;22;20007;-89
2021/05/26 18:48:35;;;;;;;1.95;1.85;;;19.20;71.20;;;;;;6259547;22;20552;-89
2021/05/26 18:51:01;;;;;;;2.95;2.10;;;19.20;71.10;;;;;;6250647;22;20019;-90
2021/05/26 18:53:29;;;;;;;3.40;2.22;;;19.20;71.00;;;;;;6278755;22;20094;-89
2021/05/26 18:55:58;;;;;;;3.08;2.55;;;19.20;71.10;;;;;;6251888;22;20078;-90
2021/05/26 18:58:24;;;;;;;3.70;2.45;;;19.30;71.20;;;;;;6263963;22;20018;-89
2021/05/26 19:00:50;;;;;;;2.60;2.00;;;19.30;71.20;;;;;;6268712;22;20007;-89
2021/05/26 19:03:19;;;;;;;2.30;2.10;;;19.30;71.30;;;;;;6269028;22;19996;-90
2021/05/26 19:05:45;;;;;;;3.35;2.35;;;19.30;71.30;;;;;;6264699;22;20000;-90
2021/05/26 19:08:16;;;;;;;3.08;2.78;;;19.30;71.30;;;;;;6293773;22;20055;-90
2021/05/26 19:10:45;;;;;;;3.83;2.65;;;19.30;71.40;;;;;;6294203;22;20506;-90
2021/05/26 19:13:12;;;;;;;2.75;2.20;;;19.30;71.40;;;;;;6267275;22;20004;-90
2021/05/26 19:15:38;;;;;;;2.55;2.25;;;19.30;71.50;;;;;;6266294;22;20315;-89
2021/05/26 19:18:05;;;;;;;2.97;2.53;;;19.30;71.80;;;;;;6257456;22;20074;-90
2021/05/26 19:20:31;;;;;;;2.80;2.50;;;19.30;72.00;;;;;;6251220;22;20011;-89
2021/05/26 19:23:00;;;;;;;2.83;2.50;;;19.30;72.10;;;;;;6250990;22;20054;-91
2021/05/26 19:25:26;;;;;;;4.57;3.08;;;19.30;72.20;;;;;;6251286;22;20506;-90
2021/05/26 19:27:56;;;;;;;2.78;2.47;;;19.20;72.30;;;;;;6251857;22;20006;-89
2021/05/26 19:30:23;;;;;;;3.67;2.83;;;19.20;72.40;;;;;;6252889;22;19999;-90
2021/05/26 19:32:52;;;;;;;2.47;2.28;;;19.20;72.60;;;;;;6253216;22;20415;-90
2021/05/26 19:35:20;;;;;;;2.58;2.38;;;19.20;72.70;;;;;;6253088;22;20004;-89
2021/05/26 19:37:46;;;;;;;4.18;2.17;;;19.20;72.80;;;;;;6253104;22;20091;-89
2021/05/26 19:40:14;;;;;;;2.85;2.60;;;19.20;72.80;;;;;;6252425;22;20006;-89
2021/05/26 19:42:40;;;;;;;3.35;2.58;;;19.20;72.90;;;;;;6268412;22;20018;-89
2021/05/26 19:45:07;;;;;;;3.25;2.50;;;19.20;73.00;;;;;;6276675;22;19999;-90
2021/05/26 19:47:33;;;;;;;3.33;2.80;;;19.20;73.00;;;;;;6275518;22;20136;-90
2021/05/26 19:50:00;;;;;;;2.70;2.35;;;19.20;73.00;;;;;;6272181;22;20016;-90
2021/05/26 19:52:25;;;;;;;3.92;2.92;;;19.20;73.20;;;;;;6269373;22;20000;-90
2021/05/26 19:54:51;;;;;;;3.15;2.83;;;19.20;73.30;;;;;;6262334;22;20004;-90
2021/05/26 19:57:17;;;;;;;6.57;2.60;;;19.20;73.40;;;;;;6253307;22;20004;-90
2021/05/26 19:59:46;;;;;;;2.55;2.35;;;19.10;73.40;;;;;;6250969;22;20000;-90
2021/05/26 20:02:12;;;;;;;2.63;2.35;;;19.10;73.40;;;;;;6251061;22;20364;-90
2021/05/26 20:04:37;;;;;;;2.45;2.25;;;19.10;73.50;;;;;;6250250;22;20006;-89
2021/05/26 20:07:09;;;;;;;2.75;2.45;;;19.10;73.40;;;;;;6251501;22;20004;-90
2021/05/26 20:09:37;;;;;;;2.42;2.22;;;19.00;73.50;;;;;;6252879;22;20375;-89
2021/05/26 20:12:03;;;;;;;3.42;2.80;;;19.00;73.60;;;;;;6255585;22;20008;-89
2021/05/26 20:14:29;;;;;;;2.60;2.30;;;19.00;73.80;;;;;;6255396;22;20423;-89
2021/05/26 20:16:55;;;;;;;5.20;2.97;;;18.90;73.90;;;;;;6282269;22;20042;-89
2021/05/26 20:19:21;;;;;;;4.10;2.90;;;18.90;74.10;;;;;;6253408;22;20004;-89
2021/05/26 20:21:49;;;;;;;2.95;2.65;;;18.90;74.40;;;;;;6279372;22;20019;-90
2021/05/26 20:24:15;;;;;;;3.65;2.80;;;18.80;74.60;;;;;;6279363;22;20026;-90
2021/05/26 20:26:41;;;;;;;3.65;3.03;;;18.80;74.80;;;;;;6264043;22;20007;-89
2021/05/26 20:29:07;;;;;;;5.00;3.40;;;18.80;75.00;;;;;;6265153;22;20485;-89
2021/05/26 20:31:34;;;;;;;4.78;4.13;;;18.70;75.00;;;;;;6264545;22;20007;-89
2021/05/26 20:34:01;;;;;;;4.10;3.65;;;18.70;75.30;;;;;;6293305;22;19996;-89
2021/05/26 20:36:29;;;;;;;3.65;3.33;;;18.60;75.50;;;;;;6268498;22;20004;-90
2021/05/26 20:38:55;;;;;;;3.63;3.05;;;18.60;75.80;;;;;;6269095;22;19999;-89
2021/05/26 20:41:28;;;;;;;3.95;3.03;;;18.60;75.90;;;;;;6289145;22;20012;-90
2021/05/26 20:43:56;;;;;;;4.15;2.88;;;18.60;76.10;;;;;;6283465;22;19995;-90
2021/05/26 20:46:22;;;;;;;3.70;2.75;;;18.50;76.10;;;;;;6261922;22;20004;-89
2021/05/26 20:48:48;;;;;;;3.40;2.70;;;18.50;76.20;;;;;;6271606;22;20323;-88
2021/05/26 20:51:13;;;;;;;6.80;2.65;;;18.50;76.30;;;;;;6268683;22;20015;-90
2021/05/26 20:53:42;;;;;;;3.38;2.75;;;18.50;76.30;;;;;;6271353;22;20008;-89
2021/05/26 20:56:07;;;;;;;3.53;2.45;;;18.50;76.40;;;;;;6255936;22;20002;-89
2021/05/26 20:58:35;;;;;;;3.05;2.67;;;18.50;76.60;;;;;;6252479;22;20008;-89
2021/05/26 21:01:01;;;;;;;5.50;2.83;;;18.40;76.60;;;;;;6252572;22;20065;-89
2021/05/26 21:03:27;;;;;;;3.20;2.40;;;18.40;76.70;;;;;;6279285;22;20311;-90
2021/05/26 21:05:55;;;;;;;4.78;2.40;;;18.50;76.90;;;;;;6252510;22;20004;-90
2021/05/26 21:08:21;;;;;;;3.20;2.58;;;18.50;76.90;;;;;;6251935;22;20020;-90
2021/05/26 21:10:47;;;;;;;3.00;2.58;;;18.50;77.00;;;;;;6252613;22;20480;-89
2021/05/26 21:13:15;;;;;;;2.90;2.60;;;18.50;77.00;;;;;;6251951;22;20008;-90
2021/05/26 21:15:41;;;;;;;2.85;2.60;;;18.50;77.00;;;;;;6251626;22;20031;-89
2021/05/26 21:18:06;;;;;;;2.58;2.30;;;18.60;77.10;;;;;;6251846;22;20002;-89
2021/05/26 21:20:32;;;;;;;3.65;2.55;;;18.60;77.10;;;;;;6252198;22;20066;-89
2021/05/26 21:22:58;;;;;;;3.10;2.53;;;18.60;77.10;;;;;;6278809;22;20004;-89
2021/05/26 21:25:24;;;;;;;2.42;2.22;;;18.60;77.00;;;;;;6252077;22;20426;-89
2021/05/26 21:27:59;;;;;;;;;;;;;;;;;;;;;
2021/05/26 21:30:25;;;;;;;4.25;2.80;;;18.70;77.10;;;;;;6279306;22;20079;-90
2021/05/26 21:32:51;;;;;;;4.10;3.20;;;18.70;77.00;;;;;;6252421;22;20364;-90
2021/05/26 21:35:25;;;;;;;3.20;2.90;;;18.70;77.10;;;;;;6252083;22;20031;-89
2021/05/26 21:37:54;;;;;;;3.10;2.80;;;18.70;77.60;;;;;;6252321;22;20004;-90
2021/05/26 21:40:22;;;;;;;3.55;2.83;;;18.70;77.10;;;;;;6251832;22;20449;-89
2021/05/26 21:42:47;;;;;;;5.35;2.97;;;18.70;77.20;;;;;;6251792;22;20028;-90
2021/05/26 21:45:13;;;;;;;3.50;3.20;;;18.70;77.30;;;;;;6253121;22;20407;-90
2021/05/26 21:47:40;;;;;;;5.93;3.47;;;18.70;77.40;;;;;;6251777;22;20012;-90
2021/05/26 21:50:07;;;;;;;4.07;3.13;;;18.70;77.40;;;;;;6251087;22;20097;-89
2021/05/26 21:52:33;;;;;;;3.92;3.25;;;18.70;77.50;;;;;;6252104;22;20027;-89
2021/05/26 21:54:59;;;;;;;4.32;2.97;;;18.70;77.60;;;;;;6253718;22;20447;-89
2021/05/26 21:57:25;;;;;;;3.50;3.03;;;18.80;77.70;;;;;;6269169;22;20000;-90
2021/05/26 21:59:54;;;;;;;5.90;2.45;;;18.80;77.80;;;;;;6272460;22;20059;-90
2021/05/26 22:02:20;;;;;;;4.57;3.15;;;18.80;77.80;;;;;;6272733;22;20004;-90
2021/05/26 22:04:46;;;;;;;3.25;2.90;;;18.80;77.80;;;;;;6263516;22;20058;-89
2021/05/26 22:07:15;;;;;;;5.57;3.08;;;18.80;77.80;;;;;;6252726;22;19999;-89
2021/05/26 22:09:41;;;;;;;3.25;2.75;;;18.80;77.80;;;;;;6278847;22;20050;-92
2021/05/26 22:12:10;;;;;;;2.90;2.60;;;18.80;77.90;;;;;;6252630;22;20012;-90
2021/05/26 22:14:38;;;;;;;3.63;3.00;;;18.80;77.90;;;;;;6267880;22;19984;-90
2021/05/26 22:17:09;;;;;;;3.70;3.00;;;18.80;78.00;;;;;;6276414;22;20330;-89
2021/05/26 22:19:38;;;;;;;3.85;3.40;;;18.80;78.10;;;;;;6278725;22;19992;-90
2021/05/26 22:22:04;;;;;;;5.25;2.83;;;18.80;78.20;;;;;;6277569;22;20030;-89
2021/05/26 22:24:32;;;;;;;3.35;2.80;;;18.80;78.20;;;;;;6258228;22;20003;-89
2021/05/26 22:26:58;;;;;;;4.22;3.15;;;18.80;78.30;;;;;;6251038;22;20006;-89
2021/05/26 22:29:26;;;;;;;4.05;3.08;;;18.90;78.30;;;;;;6251634;22;20000;-89
2021/05/26 22:31:51;;;;;;;4.88;3.30;;;18.80;78.20;;;;;;6278272;22;20000;-90
2021/05/26 22:34:19;;;;;;;4.07;3.33;;;18.90;78.30;;;;;;6251459;22;20004;-89
2021/05/26 22:36:45;;;;;;;4.75;3.78;;;18.80;78.20;;;;;;6278142;22;19992;-90
2021/05/26 22:39:11;;;;;;;9.18;5.30;;;18.80;78.30;;;;;;6251082;22;20065;-89
2021/05/26 22:41:39;;;;;;;13.65;6.05;;;18.80;78.30;;;;;;6251133;22;20011;-89
2021/05/26 22:44:05;;;;;;;14.85;6.95;;;18.80;78.40;;;;;;6251053;22;20003;-90
2021/05/26 22:46:42;;;;;;;14.32;8.93;;;18.80;78.50;;;;;;6250965;22;20083;-89
2021/05/26 22:49:09;;;;;;;11.65;7.28;;;18.70;78.50;;;;;;6278264;22;20006;-89
2021/05/26 22:51:38;;;;;;;10.05;6.90;;;18.70;78.60;;;;;;6251080;22;20011;-88
2021/05/26 22:54:06;;;;;;;6.85;5.45;;;18.60;78.80;;;;;;6250860;22;20453;-89
2021/05/26 22:56:32;;;;;;;8.40;5.72;;;18.50;79.10;;;;;;6250319;22;20054;-89
2021/05/26 22:59:00;;;;;;;9.73;7.40;;;18.50;79.30;;;;;;6250934;22;20008;-89
2021/05/26 23:01:28;;;;;;;10.65;7.95;;;18.40;79.50;;;;;;6251028;22;20019;-88
2021/05/26 23:04:01;;;;;;;11.43;8.20;;;18.40;79.80;;;;;;6251033;22;20000;-89
2021/05/26 23:06:28;;;;;;;9.45;7.47;;;18.30;80.20;;;;;;6251035;22;20439;-89
2021/05/26 23:08:57;;;;;;;11.02;8.18;;;18.30;80.20;;;;;;6278059;22;20080;-89
2021/05/26 23:11:28;;;;;;;9.80;7.20;;;18.20;80.30;;;;;;6250900;22;20331;-88
2021/05/26 23:13:54;;;;;;;10.52;7.88;;;18.20;80.40;;;;;;6251104;22;20004;-89
2021/05/26 23:16:20;;;;;;;8.25;6.18;;;18.10;80.40;;;;;;6250882;22;20006;-89
2021/05/26 23:18:47;;;;;;;9.13;6.40;;;18.10;80.60;;;;;;6250751;22;20366;-89
2021/05/26 23:21:16;;;;;;;7.30;6.00;;;18.00;80.70;;;;;;6277797;22;20007;-89
2021/05/26 23:23:42;;;;;;;9.65;7.13;;;17.90;80.90;;;;;;6251172;22;20034;-89
2021/05/26 23:26:09;;;;;;;10.73;7.47;;;17.90;80.90;;;;;;6250960;22;20369;-89
2021/05/26 23:28:35;;;;;;;10.32;9.02;;;17.80;81.00;;;;;;6277807;22;20312;-89
2021/05/26 23:31:04;;;;;;;10.05;7.82;;;17.80;81.30;;;;;;6251044;22;20458;-89
2021/05/26 23:33:32;;;;;;;7.35;6.47;;;17.70;81.30;;;;;;6277410;22;19999;-89
2021/05/26 23:36:02;;;;;;;8.02;6.40;;;17.60;81.50;;;;;;6277165;22;20423;-89
2021/05/26 23:38:28;;;;;;;9.13;6.68;;;17.60;81.50;;;;;;6250792;22;20004;-89
2021/05/26 23:40:54;;;;;;;8.15;6.85;;;17.60;81.60;;;;;;6250754;22;20450;-89
2021/05/26 23:43:20;;;;;;;7.47;6.32;;;17.50;81.70;;;;;;6252404;22;20000;-90
2021/05/26 23:45:48;;;;;;;8.52;7.50;;;17.50;82.20;;;;;;6252816;22;20006;-89
2021/05/26 23:48:14;;;;;;;7.75;6.55;;;17.40;82.20;;;;;;6252096;22;20000;-89
2021/05/26 23:50:39;;;;;;;7.38;5.82;;;17.40;82.40;;;;;;6252565;22;20019;-89
2021/05/26 23:53:06;;;;;;;6.90;6.00;;;17.40;82.40;;;;;;6252763;22;19999;-89
2021/05/26 23:55:31;;;;;;;7.35;6.00;;;17.30;82.40;;;;;;6252773;22;20061;-89
2021/05/26 23:57:58;;;;;;;5.85;5.25;;;17.30;82.50;;;;;;6252679;22;20012;-89
